sensor_id;sensor_type;location;lat;lon;timestamp;pressure;altitude;pressure_sealevel;temperature;humidity
41686;BME280;27370;42.764;23.432;2023-12-28T00:02:13;96698.19;;;-0.81;100.00
41686;BME280;27370;42.764;23.432;2023-12-28T00:04:40;96721.78;;;-0.88;100.00
41686;BME280;27370;42.764;23.432;2023-12-28T00:07:05;96667.94;;;-1.25;100.00
41686;BME280;27370;42.764;23.432;2023-12-28T00:09:31;96715.75;;;-1.02;100.00
41686;BME280;27370;42.764;23.432;2023-12-28T00:11:56;96712.13;;;-1.06;100.00
41686;BME280;27370;42.764;23.432;2023-12-28T00:14:22;96711.75;;;-1.13;100.00
41686;BME280;27370;42.764;23.432;2023-12-28T00:16:47;96717.44;;;-1.06;100.00
41686;BME280;27370;42.764;23.432;2023-12-28T00:19:13;96722.22;;;-1.17;100.00
41686;BME280;27370;42.764;23.432;2023-12-28T00:21:38;96671.34;;;-1.55;100.00
41686;BME280;27370;42.764;23.432;2023-12-28T00:24:05;96708.53;;;-1.33;100.00
41686;BME280;27370;42.764;23.432;2023-12-28T00:26:30;96670.44;;;-1.50;100.00
41686;BME280;27370;42.764;23.432;2023-12-28T00:29:03;96728.78;;;-1.14;100.00
41686;BME280;27370;42.764;23.432;2023-12-28T00:31:28;96724.47;;;-1.33;100.00
41686;BME280;27370;42.764;23.432;2023-12-28T00:33:54;96723.47;;;-1.37;100.00
41686;BME280;27370;42.764;23.432;2023-12-28T00:36:19;96728.00;;;-1.15;100.00
41686;BME280;27370;42.764;23.432;2023-12-28T00:38:45;96730.91;;;-1.25;100.00
41686;BME280;27370;42.764;23.432;2023-12-28T00:41:11;96741.66;;;-1.30;100.00
41686;BME280;27370;42.764;23.432;2023-12-28T00:43:38;96713.44;;;-1.40;100.00
41686;BME280;27370;42.764;23.432;2023-12-28T00:46:03;96745.03;;;-1.16;100.00
41686;BME280;27370;42.764;23.432;2023-12-28T00:48:30;96745.25;;;-1.12;100.00
41686;BME280;27370;42.764;23.432;2023-12-28T00:50:55;96750.66;;;-1.17;100.00
41686;BME280;27370;42.764;23.432;2023-12-28T00:53:21;96743.06;;;-1.33;100.00
41686;BME280;27370;42.764;23.432;2023-12-28T00:55:47;96753.31;;;-1.40;100.00
41686;BME280;27370;42.764;23.432;2023-12-28T00:58:13;96740.63;;;-1.43;100.00
41686;BME280;27370;42.764;23.432;2023-12-28T01:00:38;96757.47;;;-1.47;100.00
41686;BME280;27370;42.764;23.432;2023-12-28T01:03:04;96767.53;;;-1.58;100.00
41686;BME280;27370;42.764;23.432;2023-12-28T01:05:29;96749.03;;;-1.63;100.00
41686;BME280;27370;42.764;23.432;2023-12-28T01:07:55;96761.84;;;-1.65;100.00
41686;BME280;27370;42.764;23.432;2023-12-28T01:10:21;96751.69;;;-1.63;100.00
41686;BME280;27370;42.764;23.432;2023-12-28T01:12:46;96751.88;;;-1.60;100.00
41686;BME280;27370;42.764;23.432;2023-12-28T01:15:12;96758.25;;;-1.47;100.00
41686;BME280;27370;42.764;23.432;2023-12-28T01:17:37;96746.25;;;-1.44;100.00
41686;BME280;27370;42.764;23.432;2023-12-28T01:20:04;96746.19;;;-1.53;100.00
41686;BME280;27370;42.764;23.432;2023-12-28T01:22:29;96748.59;;;-1.43;100.00
41686;BME280;27370;42.764;23.432;2023-12-28T01:24:55;96752.59;;;-1.54;100.00
41686;BME280;27370;42.764;23.432;2023-12-28T01:27:20;96752.84;;;-1.92;100.00
41686;BME280;27370;42.764;23.432;2023-12-28T01:29:46;96738.97;;;-1.89;100.00
41686;BME280;27370;42.764;23.432;2023-12-28T01:32:11;96743.75;;;-1.63;100.00
41686;BME280;27370;42.764;23.432;2023-12-28T01:34:37;96732.72;;;-1.57;100.00
41686;BME280;27370;42.764;23.432;2023-12-28T01:37:02;96744.13;;;-1.56;100.00
41686;BME280;27370;42.764;23.432;2023-12-28T01:39:28;96693.13;;;-2.03;100.00
41686;BME280;27370;42.764;23.432;2023-12-28T01:41:53;96732.41;;;-1.91;100.00
41686;BME280;27370;42.764;23.432;2023-12-28T01:44:19;96750.19;;;-1.78;100.00
41686;BME280;27370;42.764;23.432;2023-12-28T01:46:45;96693.69;;;-2.06;100.00
41686;BME280;27370;42.764;23.432;2023-12-28T01:49:11;96734.50;;;-1.66;100.00
41686;BME280;27370;42.764;23.432;2023-12-28T01:51:37;96757.66;;;-1.44;100.00
41686;BME280;27370;42.764;23.432;2023-12-28T01:54:03;96751.97;;;-1.51;100.00
41686;BME280;27370;42.764;23.432;2023-12-28T01:56:29;96747.91;;;-1.85;100.00
41686;BME280;27370;42.764;23.432;2023-12-28T01:58:55;96701.34;;;-2.04;100.00
41686;BME280;27370;42.764;23.432;2023-12-28T02:01:21;96719.50;;;-1.84;100.00
41686;BME280;27370;42.764;23.432;2023-12-28T02:03:48;96737.47;;;-1.67;100.00
41686;BME280;27370;42.764;23.432;2023-12-28T02:06:14;96759.66;;;-1.63;100.00
41686;BME280;27370;42.764;23.432;2023-12-28T02:08:44;96754.59;;;-1.73;100.00
41686;BME280;27370;42.764;23.432;2023-12-28T02:11:10;96691.81;;;-1.92;100.00
41686;BME280;27370;42.764;23.432;2023-12-28T02:13:36;96758.09;;;-1.64;100.00
41686;BME280;27370;42.764;23.432;2023-12-28T02:18:36;96741.75;;;-1.80;100.00
41686;BME280;27370;42.764;23.432;2023-12-28T02:21:04;96689.22;;;-2.19;100.00
41686;BME280;27370;42.764;23.432;2023-12-28T02:23:32;96717.06;;;-1.94;100.00
41686;BME280;27370;42.764;23.432;2023-12-28T02:25:58;96736.94;;;-1.92;100.00
41686;BME280;27370;42.764;23.432;2023-12-28T02:28:24;96719.50;;;-1.84;100.00
41686;BME280;27370;42.764;23.432;2023-12-28T02:30:51;96721.59;;;-1.95;100.00
41686;BME280;27370;42.764;23.432;2023-12-28T02:33:34;96728.28;;;-1.97;100.00
41686;BME280;27370;42.764;23.432;2023-12-28T02:36:02;96739.59;;;-1.92;100.00
41686;BME280;27370;42.764;23.432;2023-12-28T02:38:32;96721.81;;;-2.05;100.00
41686;BME280;27370;42.764;23.432;2023-12-28T02:40:58;96729.63;;;-1.86;100.00
41686;BME280;27370;42.764;23.432;2023-12-28T02:43:24;96731.50;;;-1.87;100.00
41686;BME280;27370;42.764;23.432;2023-12-28T02:45:50;96716.91;;;-1.98;100.00
41686;BME280;27370;42.764;23.432;2023-12-28T02:48:16;96722.38;;;-1.94;100.00
41686;BME280;27370;42.764;23.432;2023-12-28T02:50:41;96717.69;;;-2.11;100.00
41686;BME280;27370;42.764;23.432;2023-12-28T02:53:07;96696.75;;;-2.12;100.00
41686;BME280;27370;42.764;23.432;2023-12-28T02:55:33;96726.91;;;-1.95;100.00
41686;BME280;27370;42.764;23.432;2023-12-28T02:57:59;96669.69;;;-2.23;100.00
41686;BME280;27370;42.764;23.432;2023-12-28T03:00:24;96704.44;;;-2.11;100.00
41686;BME280;27370;42.764;23.432;2023-12-28T03:02:50;96715.75;;;-1.83;100.00
41686;BME280;27370;42.764;23.432;2023-12-28T03:05:16;96727.56;;;-1.75;100.00
41686;BME280;27370;42.764;23.432;2023-12-28T03:07:42;96727.28;;;-1.88;100.00
41686;BME280;27370;42.764;23.432;2023-12-28T03:10:08;96723.78;;;-1.97;100.00
41686;BME280;27370;42.764;23.432;2023-12-28T03:12:33;96721.91;;;-2.10;100.00
41686;BME280;27370;42.764;23.432;2023-12-28T03:14:59;96712.75;;;-2.04;100.00
41686;BME280;27370;42.764;23.432;2023-12-28T03:17:25;96706.47;;;-2.08;100.00
41686;BME280;27370;42.764;23.432;2023-12-28T03:19:51;96698.63;;;-2.13;100.00
41686;BME280;27370;42.764;23.432;2023-12-28T03:22:16;96688.13;;;-2.18;100.00
41686;BME280;27370;42.764;23.432;2023-12-28T03:24:43;96650.75;;;-2.44;100.00
41686;BME280;27370;42.764;23.432;2023-12-28T03:27:08;96715.94;;;-2.16;100.00
41686;BME280;27370;42.764;23.432;2023-12-28T03:29:34;96723.22;;;-2.21;100.00
41686;BME280;27370;42.764;23.432;2023-12-28T03:32:00;96722.25;;;-2.25;100.00
41686;BME280;27370;42.764;23.432;2023-12-28T03:34:26;96676.38;;;-2.53;100.00
41686;BME280;27370;42.764;23.432;2023-12-28T03:36:54;96661.34;;;-2.58;100.00
41686;BME280;27370;42.764;23.432;2023-12-28T03:39:20;96719.59;;;-2.25;100.00
41686;BME280;27370;42.764;23.432;2023-12-28T03:41:45;96726.94;;;-2.22;100.00
41686;BME280;27370;42.764;23.432;2023-12-28T03:44:11;96724.97;;;-2.30;100.00
41686;BME280;27370;42.764;23.432;2023-12-28T03:46:36;96723.41;;;-2.18;100.00
41686;BME280;27370;42.764;23.432;2023-12-28T03:49:02;96728.50;;;-2.07;100.00
41686;BME280;27370;42.764;23.432;2023-12-28T03:51:27;96644.56;;;-2.67;100.00
41686;BME280;27370;42.764;23.432;2023-12-28T03:53:53;96740.50;;;-2.10;100.00
41686;BME280;27370;42.764;23.432;2023-12-28T03:56:27;96725.34;;;-2.09;100.00
41686;BME280;27370;42.764;23.432;2023-12-28T03:58:54;96729.50;;;-2.03;100.00
41686;BME280;27370;42.764;23.432;2023-12-28T04:01:21;96717.91;;;-2.21;100.00
41686;BME280;27370;42.764;23.432;2023-12-28T04:03:49;96729.72;;;-2.41;100.00
41686;BME280;27370;42.764;23.432;2023-12-28T04:06:15;96746.50;;;-2.18;100.00
41686;BME280;27370;42.764;23.432;2023-12-28T04:08:43;96742.06;;;-2.09;100.00
41686;BME280;27370;42.764;23.432;2023-12-28T04:11:09;96687.75;;;-2.39;100.00
41686;BME280;27370;42.764;23.432;2023-12-28T04:13:35;96747.66;;;-1.97;100.00
41686;BME280;27370;42.764;23.432;2023-12-28T04:16:01;96735.50;;;-2.25;100.00
41686;BME280;27370;42.764;23.432;2023-12-28T04:18:27;96757.59;;;-2.02;100.00
41686;BME280;27370;42.764;23.432;2023-12-28T04:20:53;96741.38;;;-2.14;100.00
41686;BME280;27370;42.764;23.432;2023-12-28T04:23:19;96690.81;;;-2.45;100.00
41686;BME280;27370;42.764;23.432;2023-12-28T04:25:44;96754.25;;;-2.08;100.00
41686;BME280;27370;42.764;23.432;2023-12-28T04:28:10;96747.41;;;-2.23;100.00
41686;BME280;27370;42.764;23.432;2023-12-28T04:30:36;96701.09;;;-2.85;100.00
41686;BME280;27370;42.764;23.432;2023-12-28T04:33:02;96757.41;;;-2.47;100.00
41686;BME280;27370;42.764;23.432;2023-12-28T04:35:28;96754.75;;;-2.20;100.00
41686;BME280;27370;42.764;23.432;2023-12-28T04:37:54;96758.19;;;-2.19;100.00
41686;BME280;27370;42.764;23.432;2023-12-28T04:40:20;96766.28;;;-2.84;100.00
41686;BME280;27370;42.764;23.432;2023-12-28T04:42:46;96764.13;;;-2.82;100.00
41686;BME280;27370;42.764;23.432;2023-12-28T04:45:12;96703.53;;;-3.16;100.00
41686;BME280;27370;42.764;23.432;2023-12-28T04:47:38;96762.69;;;-2.61;100.00
41686;BME280;27370;42.764;23.432;2023-12-28T04:50:04;96760.44;;;-2.67;100.00
41686;BME280;27370;42.764;23.432;2023-12-28T04:52:30;96732.22;;;-2.77;100.00
41686;BME280;27370;42.764;23.432;2023-12-28T04:54:56;96745.13;;;-2.70;100.00
41686;BME280;27370;42.764;23.432;2023-12-28T04:57:22;96741.41;;;-2.42;100.00
41686;BME280;27370;42.764;23.432;2023-12-28T04:59:51;96738.63;;;-2.37;100.00
41686;BME280;27370;42.764;23.432;2023-12-28T05:02:18;96716.06;;;-2.48;100.00
41686;BME280;27370;42.764;23.432;2023-12-28T05:04:43;96730.38;;;-2.49;100.00
41686;BME280;27370;42.764;23.432;2023-12-28T05:07:09;96703.16;;;-2.82;100.00
41686;BME280;27370;42.764;23.432;2023-12-28T05:09:35;96760.81;;;-2.60;100.00
41686;BME280;27370;42.764;23.432;2023-12-28T05:12:01;96748.34;;;-2.60;100.00
41686;BME280;27370;42.764;23.432;2023-12-28T05:14:27;96757.19;;;-2.51;100.00
41686;BME280;27370;42.764;23.432;2023-12-28T05:16:53;96699.44;;;-2.81;100.00
41686;BME280;27370;42.764;23.432;2023-12-28T05:19:18;96745.13;;;-2.57;100.00
41686;BME280;27370;42.764;23.432;2023-12-28T05:21:44;96754.34;;;-2.68;100.00
41686;BME280;27370;42.764;23.432;2023-12-28T05:24:10;96751.75;;;-2.73;100.00
41686;BME280;27370;42.764;23.432;2023-12-28T05:26:35;96664.00;;;-3.13;100.00
41686;BME280;27370;42.764;23.432;2023-12-28T05:29:00;96716.44;;;-2.41;100.00
41686;BME280;27370;42.764;23.432;2023-12-28T05:31:26;96761.03;;;-2.16;100.00
41686;BME280;27370;42.764;23.432;2023-12-28T05:33:52;96750.03;;;-2.36;100.00
41686;BME280;27370;42.764;23.432;2023-12-28T05:36:17;96741.56;;;-2.52;100.00
41686;BME280;27370;42.764;23.432;2023-12-28T05:38:42;96761.53;;;-2.41;100.00
41686;BME280;27370;42.764;23.432;2023-12-28T05:41:11;96763.59;;;-2.38;100.00
41686;BME280;27370;42.764;23.432;2023-12-28T05:43:37;96754.63;;;-2.28;100.00
41686;BME280;27370;42.764;23.432;2023-12-28T05:46:04;96762.91;;;-2.43;100.00
41686;BME280;27370;42.764;23.432;2023-12-28T05:48:29;96762.50;;;-2.51;100.00
41686;BME280;27370;42.764;23.432;2023-12-28T05:50:56;96771.34;;;-2.41;100.00
41686;BME280;27370;42.764;23.432;2023-12-28T05:53:22;96760.75;;;-2.41;100.00
41686;BME280;27370;42.764;23.432;2023-12-28T05:55:48;96757.00;;;-2.40;100.00
41686;BME280;27370;42.764;23.432;2023-12-28T05:58:13;96768.91;;;-2.38;100.00
41686;BME280;27370;42.764;23.432;2023-12-28T06:00:39;96765.84;;;-2.45;100.00
41686;BME280;27370;42.764;23.432;2023-12-28T06:03:05;96759.16;;;-2.29;100.00
41686;BME280;27370;42.764;23.432;2023-12-28T06:05:31;96777.44;;;-2.27;100.00
41686;BME280;27370;42.764;23.432;2023-12-28T06:07:57;96765.06;;;-2.45;100.00
41686;BME280;27370;42.764;23.432;2023-12-28T06:10:22;96782.72;;;-2.55;100.00
41686;BME280;27370;42.764;23.432;2023-12-28T06:12:49;96766.25;;;-2.38;100.00
41686;BME280;27370;42.764;23.432;2023-12-28T06:15:15;96791.88;;;-2.47;100.00
41686;BME280;27370;42.764;23.432;2023-12-28T06:17:40;96784.00;;;-2.52;100.00
41686;BME280;27370;42.764;23.432;2023-12-28T06:20:06;96785.22;;;-2.44;100.00
41686;BME280;27370;42.764;23.432;2023-12-28T06:22:34;96775.28;;;-2.39;100.00
41686;BME280;27370;42.764;23.432;2023-12-28T06:25:02;96787.66;;;-2.21;100.00
41686;BME280;27370;42.764;23.432;2023-12-28T06:27:29;96724.31;;;-2.63;100.00
41686;BME280;27370;42.764;23.432;2023-12-28T06:29:54;96784.03;;;-2.25;100.00
41686;BME280;27370;42.764;23.432;2023-12-28T06:32:20;96760.25;;;-2.30;100.00
41686;BME280;27370;42.764;23.432;2023-12-28T06:34:46;96738.34;;;-2.35;100.00
41686;BME280;27370;42.764;23.432;2023-12-28T06:37:12;96794.53;;;-1.92;100.00
41686;BME280;27370;42.764;23.432;2023-12-28T06:39:38;96787.34;;;-1.92;100.00
41686;BME280;27370;42.764;23.432;2023-12-28T06:42:04;96783.50;;;-1.86;100.00
41686;BME280;27370;42.764;23.432;2023-12-28T06:44:30;96774.44;;;-1.71;100.00
41686;BME280;27370;42.764;23.432;2023-12-28T06:46:55;96780.16;;;-1.77;100.00
41686;BME280;27370;42.764;23.432;2023-12-28T06:49:21;96794.47;;;-1.51;100.00
41686;BME280;27370;42.764;23.432;2023-12-28T06:51:46;96767.50;;;-2.08;100.00
41686;BME280;27370;42.764;23.432;2023-12-28T06:54:13;96802.84;;;-1.58;100.00
41686;BME280;27370;42.764;23.432;2023-12-28T06:56:38;96798.88;;;-1.46;100.00
41686;BME280;27370;42.764;23.432;2023-12-28T06:59:04;96790.97;;;-1.38;100.00
41686;BME280;27370;42.764;23.432;2023-12-28T07:01:30;96795.41;;;-1.33;100.00
41686;BME280;27370;42.764;23.432;2023-12-28T07:03:55;96792.09;;;-1.16;100.00
41686;BME280;27370;42.764;23.432;2023-12-28T07:06:21;96794.03;;;-1.94;100.00
41686;BME280;27370;42.764;23.432;2023-12-28T07:08:46;96806.34;;;-2.12;100.00
41686;BME280;27370;42.764;23.432;2023-12-28T07:11:12;96805.72;;;-1.68;100.00
41686;BME280;27370;42.764;23.432;2023-12-28T07:13:37;96788.75;;;-1.44;100.00
41686;BME280;27370;42.764;23.432;2023-12-28T07:16:03;96743.75;;;-1.63;100.00
41686;BME280;27370;42.764;23.432;2023-12-28T07:18:29;96804.00;;;-1.50;100.00
41686;BME280;27370;42.764;23.432;2023-12-28T07:20:54;96747.97;;;-2.12;100.00
41686;BME280;27370;42.764;23.432;2023-12-28T07:23:20;96816.84;;;-1.30;100.00
41686;BME280;27370;42.764;23.432;2023-12-28T07:25:45;96798.28;;;-1.07;100.00
41686;BME280;27370;42.764;23.432;2023-12-28T07:28:11;96806.91;;;-1.02;100.00
41686;BME280;27370;42.764;23.432;2023-12-28T07:30:37;96800.47;;;-1.23;100.00
41686;BME280;27370;42.764;23.432;2023-12-28T07:33:03;96742.56;;;-1.57;100.00
41686;BME280;27370;42.764;23.432;2023-12-28T07:35:29;96806.84;;;-0.88;100.00
41686;BME280;27370;42.764;23.432;2023-12-28T07:37:54;96800.69;;;-1.69;100.00
41686;BME280;27370;42.764;23.432;2023-12-28T07:40:20;96799.66;;;-1.46;100.00
41686;BME280;27370;42.764;23.432;2023-12-28T07:42:46;96808.50;;;-1.14;100.00
41686;BME280;27370;42.764;23.432;2023-12-28T07:45:11;96806.84;;;-0.88;100.00
41686;BME280;27370;42.764;23.432;2023-12-28T07:47:37;96792.34;;;-0.82;100.00
41686;BME280;27370;42.764;23.432;2023-12-28T07:50:03;96792.44;;;-0.65;100.00
41686;BME280;27370;42.764;23.432;2023-12-28T07:52:29;96813.50;;;-0.15;100.00
41686;BME280;27370;42.764;23.432;2023-12-28T07:54:54;96791.72;;;-0.17;100.00
41686;BME280;27370;42.764;23.432;2023-12-28T07:57:20;96804.97;;;-0.34;100.00
41686;BME280;27370;42.764;23.432;2023-12-28T07:59:46;96799.69;;;-0.79;100.00
41686;BME280;27370;42.764;23.432;2023-12-28T08:02:11;96812.59;;;-0.02;100.00
41686;BME280;27370;42.764;23.432;2023-12-28T08:04:37;96805.03;;;0.23;100.00
41686;BME280;27370;42.764;23.432;2023-12-28T08:07:02;96803.41;;;0.13;100.00
41686;BME280;27370;42.764;23.432;2023-12-28T08:09:29;96800.06;;;0.56;100.00
41686;BME280;27370;42.764;23.432;2023-12-28T08:11:55;96798.34;;;0.77;100.00
41686;BME280;27370;42.764;23.432;2023-12-28T08:14:21;96793.34;;;0.93;100.00
41686;BME280;27370;42.764;23.432;2023-12-28T08:16:46;96789.88;;;0.93;100.00
41686;BME280;27370;42.764;23.432;2023-12-28T08:19:12;96787.50;;;1.08;100.00
41686;BME280;27370;42.764;23.432;2023-12-28T08:21:38;96788.16;;;0.71;100.00
41686;BME280;27370;42.764;23.432;2023-12-28T08:24:04;96811.19;;;0.84;100.00
41686;BME280;27370;42.764;23.432;2023-12-28T08:26:29;96784.56;;;0.93;100.00
41686;BME280;27370;42.764;23.432;2023-12-28T08:28:55;96786.53;;;1.30;100.00
41686;BME280;27370;42.764;23.432;2023-12-28T08:31:21;96785.09;;;1.33;100.00
41686;BME280;27370;42.764;23.432;2023-12-28T08:33:46;96787.78;;;1.33;100.00
41686;BME280;27370;42.764;23.432;2023-12-28T08:36:12;96785.28;;;1.28;100.00
41686;BME280;27370;42.764;23.432;2023-12-28T08:38:38;96760.38;;;1.15;100.00
41686;BME280;27370;42.764;23.432;2023-12-28T08:41:04;96778.25;;;1.70;100.00
41686;BME280;27370;42.764;23.432;2023-12-28T08:43:35;96724.81;;;1.78;100.00
41686;BME280;27370;42.764;23.432;2023-12-28T08:46:01;96778.94;;;1.96;100.00
41686;BME280;27370;42.764;23.432;2023-12-28T08:48:27;96762.66;;;2.39;100.00
41686;BME280;27370;42.764;23.432;2023-12-28T08:50:52;96762.88;;;2.76;100.00
41686;BME280;27370;42.764;23.432;2023-12-28T08:53:18;96754.75;;;3.05;100.00
41686;BME280;27370;42.764;23.432;2023-12-28T08:55:43;96706.25;;;2.11;100.00
41686;BME280;27370;42.764;23.432;2023-12-28T08:58:09;96751.31;;;2.84;100.00
41686;BME280;27370;42.764;23.432;2023-12-28T09:00:34;96747.16;;;2.95;100.00
41686;BME280;27370;42.764;23.432;2023-12-28T09:03:00;96689.47;;;3.19;100.00
41686;BME280;27370;42.764;23.432;2023-12-28T09:05:25;96681.13;;;3.57;100.00
41686;BME280;27370;42.764;23.432;2023-12-28T09:07:51;96748.94;;;4.58;100.00
41686;BME280;27370;42.764;23.432;2023-12-28T09:10:16;96738.75;;;5.20;100.00
41686;BME280;27370;42.764;23.432;2023-12-28T09:12:42;96689.31;;;5.37;100.00
41686;BME280;27370;42.764;23.432;2023-12-28T09:15:08;96714.53;;;6.27;100.00
41686;BME280;27370;42.764;23.432;2023-12-28T09:17:34;96710.09;;;6.54;100.00
41686;BME280;27370;42.764;23.432;2023-12-28T09:20:00;96623.38;;;6.22;100.00
41686;BME280;27370;42.764;23.432;2023-12-28T09:22:27;96711.66;;;6.55;100.00
41686;BME280;27370;42.764;23.432;2023-12-28T09:24:52;96693.47;;;6.67;100.00
41686;BME280;27370;42.764;23.432;2023-12-28T09:27:18;96678.94;;;6.53;100.00
41686;BME280;27370;42.764;23.432;2023-12-28T09:29:44;96702.13;;;6.76;100.00
41686;BME280;27370;42.764;23.432;2023-12-28T09:32:10;96693.78;;;6.82;100.00
41686;BME280;27370;42.764;23.432;2023-12-28T09:34:35;96680.94;;;6.94;100.00
41686;BME280;27370;42.764;23.432;2023-12-28T09:37:01;96684.31;;;7.53;100.00
41686;BME280;27370;42.764;23.432;2023-12-28T09:39:27;96683.31;;;7.19;100.00
41686;BME280;27370;42.764;23.432;2023-12-28T09:41:59;96680.88;;;7.33;100.00
41686;BME280;27370;42.764;23.432;2023-12-28T09:44:28;96663.81;;;7.25;100.00
41686;BME280;27370;42.764;23.432;2023-12-28T09:46:56;96667.38;;;7.79;100.00
41686;BME280;27370;42.764;23.432;2023-12-28T09:49:23;96613.41;;;7.75;100.00
41686;BME280;27370;42.764;23.432;2023-12-28T09:51:48;96638.28;;;7.91;100.00
41686;BME280;27370;42.764;23.432;2023-12-28T09:54:14;96635.19;;;8.42;100.00
41686;BME280;27370;42.764;23.432;2023-12-28T09:56:40;96642.66;;;8.56;100.00
41686;BME280;27370;42.764;23.432;2023-12-28T09:59:06;96631.44;;;8.24;100.00
41686;BME280;27370;42.764;23.432;2023-12-28T10:01:35;96629.94;;;8.56;100.00
41686;BME280;27370;42.764;23.432;2023-12-28T10:04:01;96611.44;;;7.72;100.00
41686;BME280;27370;42.764;23.432;2023-12-28T10:06:29;96628.78;;;7.71;100.00
41686;BME280;27370;42.764;23.432;2023-12-28T10:08:55;96630.03;;;8.07;100.00
41686;BME280;27370;42.764;23.432;2023-12-28T10:11:21;96623.56;;;8.12;100.00
41686;BME280;27370;42.764;23.432;2023-12-28T10:13:48;96622.97;;;8.55;100.00
41686;BME280;27370;42.764;23.432;2023-12-28T10:16:15;96615.09;;;8.73;100.00
41686;BME280;27370;42.764;23.432;2023-12-28T10:18:41;96613.72;;;8.86;100.00
41686;BME280;27370;42.764;23.432;2023-12-28T10:21:08;96568.19;;;8.51;100.00
41686;BME280;27370;42.764;23.432;2023-12-28T10:23:33;96613.34;;;8.54;100.00
41686;BME280;27370;42.764;23.432;2023-12-28T10:25:59;96571.72;;;8.25;100.00
41686;BME280;27370;42.764;23.432;2023-12-28T10:28:25;96573.91;;;8.46;100.00
41686;BME280;27370;42.764;23.432;2023-12-28T10:30:54;96579.72;;;8.48;100.00
41686;BME280;27370;42.764;23.432;2023-12-28T10:33:20;96572.31;;;8.79;100.00
41686;BME280;27370;42.764;23.432;2023-12-28T10:35:46;96563.16;;;8.87;100.00
41686;BME280;27370;42.764;23.432;2023-12-28T10:38:13;96509.84;;;8.80;100.00
41686;BME280;27370;42.764;23.432;2023-12-28T10:40:41;96552.00;;;9.36;100.00
41686;BME280;27370;42.764;23.432;2023-12-28T10:43:09;96549.94;;;8.78;100.00
41686;BME280;27370;42.764;23.432;2023-12-28T10:45:39;96546.50;;;8.81;100.00
41686;BME280;27370;42.764;23.432;2023-12-28T10:48:07;96534.56;;;8.82;100.00
41686;BME280;27370;42.764;23.432;2023-12-28T10:50:49;96536.28;;;9.05;100.00
41686;BME280;27370;42.764;23.432;2023-12-28T10:59:11;96507.81;;;9.14;100.00
41686;BME280;27370;42.764;23.432;2023-12-28T11:01:41;96510.28;;;9.30;100.00
41686;BME280;27370;42.764;23.432;2023-12-28T11:04:17;96502.72;;;9.57;100.00
41686;BME280;27370;42.764;23.432;2023-12-28T11:06:46;96501.38;;;9.30;100.00
41686;BME280;27370;42.764;23.432;2023-12-28T11:09:13;96465.72;;;9.06;100.00
41686;BME280;27370;42.764;23.432;2023-12-28T11:11:43;96488.75;;;9.48;100.00
41686;BME280;27370;42.764;23.432;2023-12-28T11:14:08;96496.84;;;9.48;100.00
41686;BME280;27370;42.764;23.432;2023-12-28T11:16:34;96491.13;;;9.57;100.00
41686;BME280;27370;42.764;23.432;2023-12-28T11:19:03;96482.91;;;9.39;100.00
41686;BME280;27370;42.764;23.432;2023-12-28T11:21:30;96474.25;;;9.81;100.00
41686;BME280;27370;42.764;23.432;2023-12-28T11:23:56;96477.72;;;9.74;100.00
41686;BME280;27370;42.764;23.432;2023-12-28T11:26:22;96467.72;;;9.89;100.00
41686;BME280;27370;42.764;23.432;2023-12-28T11:28:48;96468.25;;;9.43;100.00
41686;BME280;27370;42.764;23.432;2023-12-28T11:31:15;96459.00;;;9.48;100.00
41686;BME280;27370;42.764;23.432;2023-12-28T11:33:50;96473.69;;;9.47;100.00
41686;BME280;27370;42.764;23.432;2023-12-28T11:36:41;96418.75;;;9.29;100.00
41686;BME280;27370;42.764;23.432;2023-12-28T11:39:10;96455.56;;;9.51;100.00
41686;BME280;27370;42.764;23.432;2023-12-28T11:41:36;96457.03;;;9.38;100.00
41686;BME280;27370;42.764;23.432;2023-12-28T11:44:05;96449.78;;;9.52;100.00
41686;BME280;27370;42.764;23.432;2023-12-28T11:46:31;96448.41;;;9.91;100.00
41686;BME280;27370;42.764;23.432;2023-12-28T11:49:07;96434.91;;;10.01;100.00
41686;BME280;27370;42.764;23.432;2023-12-28T11:51:35;96379.47;;;9.49;100.00
41686;BME280;27370;42.764;23.432;2023-12-28T11:54:03;96418.38;;;9.30;100.00
41686;BME280;27370;42.764;23.432;2023-12-28T11:56:32;96419.28;;;9.56;100.00
41686;BME280;27370;42.764;23.432;2023-12-28T11:59:00;96424.06;;;9.91;100.00
41686;BME280;27370;42.764;23.432;2023-12-28T12:01:25;96419.16;;;10.21;100.00
41686;BME280;27370;42.764;23.432;2023-12-28T12:03:51;96414.44;;;9.97;100.00
41686;BME280;27370;42.764;23.432;2023-12-28T12:06:16;96394.25;;;9.76;100.00
41686;BME280;27370;42.764;23.432;2023-12-28T12:08:46;96294.03;;;9.27;100.00
41686;BME280;27370;42.764;23.432;2023-12-28T12:11:16;96404.00;;;9.99;100.00
41686;BME280;27370;42.764;23.432;2023-12-28T12:13:43;96323.13;;;9.55;100.00
41686;BME280;27370;42.764;23.432;2023-12-28T12:16:08;96399.34;;;9.99;100.00
41686;BME280;27370;42.764;23.432;2023-12-28T12:18:34;96388.94;;;10.01;100.00
41686;BME280;27370;42.764;23.432;2023-12-28T12:21:01;96402.53;;;10.23;100.00
41686;BME280;27370;42.764;23.432;2023-12-28T12:23:27;96396.34;;;10.29;100.00
41686;BME280;27370;42.764;23.432;2023-12-28T12:25:53;96401.00;;;10.25;100.00
41686;BME280;27370;42.764;23.432;2023-12-28T12:28:18;96396.72;;;10.38;100.00
41686;BME280;27370;42.764;23.432;2023-12-28T12:30:54;96396.38;;;10.43;100.00
41686;BME280;27370;42.764;23.432;2023-12-28T12:33:21;96393.63;;;10.22;100.00
41686;BME280;27370;42.764;23.432;2023-12-28T12:35:47;96392.88;;;10.32;100.00
41686;BME280;27370;42.764;23.432;2023-12-28T12:38:13;96403.72;;;10.50;100.00
41686;BME280;27370;42.764;23.432;2023-12-28T12:40:38;96389.38;;;10.28;100.00
41686;BME280;27370;42.764;23.432;2023-12-28T12:43:05;96399.06;;;10.36;100.00
41686;BME280;27370;42.764;23.432;2023-12-28T12:45:34;96386.28;;;10.40;100.00
41686;BME280;27370;42.764;23.432;2023-12-28T12:48:02;96378.59;;;10.50;100.00